createdAt,value
2019-05-29T00:00:15.486Z,996.0
2019-05-29T00:03:15.506Z,996.1
2019-05-29T00:06:15.030Z,996.1
2019-05-29T00:09:15.510Z,996.2
2019-05-29T00:12:19.657Z,996.2
2019-05-29T00:15:15.718Z,996.3
2019-05-29T00:18:15.187Z,996.3
2019-05-29T00:21:15.896Z,996.3
2019-05-29T00:24:15.274Z,996.3
2019-05-29T00:27:15.730Z,996.3
2019-05-29T00:30:15.238Z,996.3
2019-05-29T00:33:15.778Z,996.3
2019-05-29T00:36:16.503Z,996.4
2019-05-29T00:39:15.030Z,996.4
2019-05-29T00:42:15.999Z,996.4
2019-05-29T00:45:15.606Z,996.5
2019-05-29T00:48:20.231Z,996.5
2019-05-29T00:51:15.809Z,996.6
2019-05-29T00:54:16.451Z,996.6
2019-05-29T00:57:15.392Z,996.6
2019-05-29T01:00:15.824Z,996.6
2019-05-29T01:03:15.867Z,996.6
2019-05-29T01:06:16.083Z,996.6
2019-05-29T01:09:16.470Z,996.7
2019-05-29T01:12:15.033Z,996.7
2019-05-29T01:15:15.501Z,996.7
2019-05-29T01:18:15.787Z,996.7
2019-05-29T01:21:15.967Z,996.8
2019-05-29T01:24:16.306Z,996.8
2019-05-29T01:27:16.812Z,996.8
2019-05-29T01:30:15.516Z,996.9
2019-05-29T01:33:17.520Z,996.9
2019-05-29T01:36:15.922Z,997.0
2019-05-29T01:39:15.342Z,996.9
2019-05-29T01:42:15.896Z,997.0
2019-05-29T01:45:15.464Z,997.0
2019-05-29T01:48:15.381Z,997.1
2019-05-29T01:51:15.839Z,997.1
2019-05-29T01:54:15.521Z,997.1
2019-05-29T01:57:15.762Z,997.1
2019-05-29T02:00:15.692Z,997.2
2019-05-29T02:03:15.783Z,997.2
2019-05-29T02:06:15.819Z,997.2
2019-05-29T02:09:15.949Z,997.3
2019-05-29T02:12:16.274Z,997.3
2019-05-29T02:15:26.031Z,997.4
2019-05-29T02:18:15.269Z,997.5
2019-05-29T02:21:15.959Z,997.5
2019-05-29T02:24:15.510Z,997.5
2019-05-29T02:27:15.029Z,997.5
2019-05-29T02:30:17.876Z,997.6
2019-05-29T02:33:15.217Z,997.6
2019-05-29T02:36:15.747Z,997.7
2019-05-29T02:39:15.293Z,997.7
2019-05-29T02:42:14.971Z,997.8
2019-05-29T02:45:15.878Z,997.7
2019-05-29T02:48:15.589Z,997.8
2019-05-29T02:51:14.934Z,997.8
2019-05-29T02:54:15.241Z,997.8
2019-05-29T02:57:15.332Z,997.9
2019-05-29T03:00:15.039Z,997.8
2019-05-29T03:03:15.776Z,997.8
2019-05-29T03:06:15.453Z,997.9
2019-05-29T03:09:15.782Z,997.9
2019-05-29T03:12:15.482Z,998.0
2019-05-29T03:15:14.964Z,998.0
2019-05-29T03:18:15.039Z,998.0
2019-05-29T03:21:15.476Z,998.1
2019-05-29T03:24:15.022Z,998.3
2019-05-29T03:27:15.131Z,998.3
2019-05-29T03:30:15.151Z,998.3
2019-05-29T03:33:14.898Z,998.4
2019-05-29T03:36:15.418Z,998.4
2019-05-29T03:39:15.182Z,998.4
2019-05-29T03:42:15.114Z,998.4
2019-05-29T03:45:15.859Z,998.5
2019-05-29T03:48:14.928Z,998.5
2019-05-29T03:51:15.253Z,998.6
2019-05-29T03:54:15.010Z,998.6
2019-05-29T03:57:15.400Z,998.6
2019-05-29T04:00:15.699Z,998.7
2019-05-29T04:03:15.665Z,998.7
2019-05-29T04:06:15.129Z,998.7
2019-05-29T04:09:15.441Z,998.8
2019-05-29T04:12:18.989Z,998.8
2019-05-29T04:15:15.279Z,998.9
2019-05-29T04:18:19.404Z,998.9
2019-05-29T04:21:15.481Z,998.8
2019-05-29T04:24:15.031Z,998.9
2019-05-29T04:27:15.499Z,999.0
2019-05-29T04:30:15.438Z,999.0
2019-05-29T04:33:15.474Z,999.0
2019-05-29T04:36:15.440Z,999.1
2019-05-29T04:39:15.576Z,999.1
2019-05-29T04:42:15.691Z,999.2
2019-05-29T04:45:15.543Z,999.2
2019-05-29T04:48:15.303Z,999.3
2019-05-29T04:51:15.287Z,999.3
2019-05-29T04:54:15.226Z,999.3
2019-05-29T04:57:15.611Z,999.4
2019-05-29T05:00:15.425Z,999.4
2019-05-29T05:03:15.330Z,999.4
2019-05-29T05:06:15.605Z,999.5
2019-05-29T05:09:15.535Z,999.5
2019-05-29T05:12:15.738Z,999.5
2019-05-29T05:15:15.165Z,999.5
2019-05-29T05:18:14.997Z,999.6
2019-05-29T05:21:15.385Z,999.6
2019-05-29T05:24:15.345Z,999.6
2019-05-29T05:27:15.770Z,999.7
2019-05-29T05:30:15.379Z,999.7
2019-05-29T05:33:14.913Z,999.8
2019-05-29T05:36:15.587Z,999.8
2019-05-29T05:39:15.105Z,999.9
2019-05-29T05:42:14.995Z,999.9
2019-05-29T05:45:15.341Z,1000.0
2019-05-29T05:48:15.023Z,1000.0
2019-05-29T05:51:15.095Z,1000.0
2019-05-29T05:54:15.459Z,1000.1
2019-05-29T05:57:15.562Z,1000.1
2019-05-29T06:00:15.783Z,1000.2
2019-05-29T06:03:15.359Z,1000.2
2019-05-29T06:06:15.047Z,1000.2
2019-05-29T06:09:15.340Z,1000.2
2019-05-29T06:12:15.890Z,1000.3
2019-05-29T06:15:15.477Z,1000.3
2019-05-29T06:18:20.971Z,1000.3
2019-05-29T06:21:15.640Z,1000.3
2019-05-29T06:24:15.253Z,1000.3
2019-05-29T06:27:15.685Z,1000.3
2019-05-29T06:30:15.141Z,1000.4
2019-05-29T06:33:15.895Z,1000.4
2019-05-29T06:36:15.453Z,1000.4
2019-05-29T06:39:14.999Z,1000.4
2019-05-29T06:42:15.642Z,1000.5
2019-05-29T06:45:15.237Z,1000.5
2019-05-29T06:48:15.458Z,1000.6
2019-05-29T06:51:15.777Z,1000.6
2019-05-29T06:54:15.343Z,1000.6
2019-05-29T06:57:15.690Z,1000.6
2019-05-29T07:00:34.014Z,1000.7
2019-05-29T07:03:15.562Z,1000.7
2019-05-29T07:06:15.075Z,1000.7
2019-05-29T07:09:15.523Z,1000.7
2019-05-29T07:12:14.975Z,1000.7
2019-05-29T07:15:15.480Z,1000.7
2019-05-29T07:18:15.258Z,1000.8
2019-05-29T07:21:15.935Z,1000.8
2019-05-29T07:24:15.596Z,1000.9
2019-05-29T07:27:15.053Z,1000.9
2019-05-29T07:30:15.773Z,1000.9
2019-05-29T07:33:15.449Z,1001.0
2019-05-29T07:36:15.058Z,1001.0
2019-05-29T07:39:15.790Z,1001.1
2019-05-29T07:42:15.360Z,1001.1
2019-05-29T07:45:15.799Z,1001.2
2019-05-29T07:48:15.452Z,1001.3
2019-05-29T07:51:15.008Z,1001.2
2019-05-29T07:54:15.626Z,1001.3
2019-05-29T07:57:14.989Z,1001.3
2019-05-29T08:00:15.466Z,1001.3
2019-05-29T08:03:15.746Z,1001.3
2019-05-29T08:06:15.261Z,1001.3
2019-05-29T08:09:15.750Z,1001.3
2019-05-29T08:12:15.235Z,1001.3
2019-05-29T08:15:15.144Z,1001.3
2019-05-29T08:18:15.581Z,1001.3
2019-05-29T08:21:15.944Z,1001.4
2019-05-29T08:24:15.248Z,1001.3
2019-05-29T08:27:15.638Z,1001.4
2019-05-29T08:30:15.150Z,1001.3
2019-05-29T08:33:15.672Z,1001.4
2019-05-29T08:36:15.306Z,1001.3
2019-05-29T08:39:32.944Z,1001.4
2019-05-29T08:42:23.034Z,1001.4
2019-05-29T08:45:15.550Z,1001.4
2019-05-29T08:48:14.928Z,1001.5
2019-05-29T08:51:15.148Z,1001.5
2019-05-29T08:54:24.023Z,1001.5
2019-05-29T08:57:15.190Z,1001.5
2019-05-29T09:00:15.845Z,1001.4
2019-05-29T09:03:15.652Z,1001.5
2019-05-29T09:06:15.097Z,1001.4
2019-05-29T09:09:15.535Z,1001.4
2019-05-29T09:12:14.996Z,1001.5
2019-05-29T09:15:20.869Z,1001.6
2019-05-29T09:18:15.235Z,1001.5
2019-05-29T09:21:15.809Z,1001.6
2019-05-29T09:24:16.245Z,1001.5
2019-05-29T09:27:16.797Z,1001.6
2019-05-29T09:30:16.666Z,1001.6
2019-05-29T09:33:18.003Z,1001.6
2019-05-29T09:36:16.768Z,1001.6
2019-05-29T09:39:16.692Z,1001.7
2019-05-29T09:42:17.405Z,1001.7
2019-05-29T09:45:16.621Z,1001.7
2019-05-29T09:48:20.846Z,1001.8
2019-05-29T09:51:21.118Z,1001.8
2019-05-29T09:54:15.494Z,1001.8
2019-05-29T09:57:15.509Z,1001.8
2019-05-29T10:00:15.212Z,1001.8
2019-05-29T10:03:15.874Z,1001.8
2019-05-29T10:06:15.547Z,1001.8
2019-05-29T10:09:15.122Z,1001.8
2019-05-29T10:12:15.710Z,1001.8
2019-05-29T10:15:15.470Z,1001.8
2019-05-29T10:18:31.344Z,1001.9
2019-05-29T10:21:15.695Z,1001.9
2019-05-29T10:24:15.557Z,1001.9
2019-05-29T10:27:19.976Z,1001.9
2019-05-29T10:30:15.684Z,1002.0
2019-05-29T10:33:15.756Z,1002.0
2019-05-29T10:36:15.498Z,1002.0
2019-05-29T10:39:15.051Z,1002.0
2019-05-29T10:42:15.689Z,1002.0
2019-05-29T10:45:15.369Z,1001.9
2019-05-29T10:48:20.195Z,1001.9
2019-05-29T10:51:15.847Z,1001.9
2019-05-29T10:54:15.587Z,1001.9
2019-05-29T10:57:15.148Z,1001.9
2019-05-29T11:00:15.097Z,1001.9
2019-05-29T11:03:15.764Z,1001.8
2019-05-29T11:06:15.518Z,1001.9
2019-05-29T11:09:14.985Z,1001.8
2019-05-29T11:12:15.595Z,1001.9
2019-05-29T11:15:21.553Z,1001.8
2019-05-29T11:18:15.678Z,1001.9
2019-05-29T11:21:15.283Z,1001.8
2019-05-29T11:24:15.365Z,1001.8
2019-05-29T11:27:15.803Z,1001.8
2019-05-29T11:30:15.466Z,1001.8
2019-05-29T11:33:15.942Z,1001.9
2019-05-29T11:36:15.627Z,1001.8
2019-05-29T11:39:15.175Z,1001.9
2019-05-29T11:42:26.894Z,1001.8
2019-05-29T11:45:15.177Z,1001.9
2019-05-29T11:48:15.809Z,1001.9
2019-05-29T11:51:15.789Z,1001.9
2019-05-29T11:54:15.357Z,1001.9
2019-05-29T11:57:15.919Z,1001.8
2019-05-29T12:00:20.065Z,1001.8
2019-05-29T12:03:15.456Z,1001.8
2019-05-29T12:06:15.326Z,1001.8
2019-05-29T12:09:31.420Z,1001.8
2019-05-29T12:12:15.337Z,1001.8
2019-05-29T12:15:18.570Z,1001.8
2019-05-29T12:18:23.566Z,1001.7
2019-05-29T12:21:15.365Z,1001.7
2019-05-29T12:24:15.908Z,1001.7
2019-05-29T12:27:15.497Z,1001.7
2019-05-29T12:30:15.093Z,1001.7
2019-05-29T12:33:14.934Z,1001.7
2019-05-29T12:36:15.055Z,1001.7
2019-05-29T12:39:15.750Z,1001.6
2019-05-29T12:42:15.663Z,1001.7
2019-05-29T12:45:15.424Z,1001.6
2019-05-29T12:48:16.048Z,1001.7
2019-05-29T12:51:15.156Z,1001.7
2019-05-29T12:54:15.858Z,1001.7
2019-05-29T12:57:15.498Z,1001.7
2019-05-29T13:00:15.359Z,1001.6
2019-05-29T13:03:15.486Z,1001.7
2019-05-29T13:06:15.382Z,1001.6
2019-05-29T13:09:14.950Z,1001.7
2019-05-29T13:12:15.741Z,1001.7
2019-05-29T13:15:15.245Z,1001.7
2019-05-29T13:18:15.292Z,1001.7
2019-05-29T13:21:15.893Z,1001.7
2019-05-29T13:24:15.447Z,1001.7
2019-05-29T13:27:15.135Z,1001.7
2019-05-29T13:30:15.669Z,1001.7
2019-05-29T13:33:15.707Z,1001.8
2019-05-29T13:36:15.359Z,1001.8
2019-05-29T13:39:15.265Z,1001.7
2019-05-29T13:42:15.787Z,1001.7
2019-05-29T13:45:18.421Z,1001.7
2019-05-29T13:48:15.516Z,1001.8
2019-05-29T13:51:15.216Z,1001.8
2019-05-29T13:54:17.931Z,1001.7
2019-05-29T13:57:15.067Z,1001.8
2019-05-29T14:00:32.133Z,1001.7
2019-05-29T14:03:15.316Z,1001.7
2019-05-29T14:06:16.006Z,1001.7
2019-05-29T14:09:15.877Z,1001.7
2019-05-29T14:12:17.019Z,1001.7
2019-05-29T14:15:15.664Z,1001.7
2019-05-29T14:18:15.350Z,1001.8
2019-05-29T14:21:15.041Z,1001.8
2019-05-29T14:24:28.800Z,1001.7
2019-05-29T14:27:15.023Z,1001.7
2019-05-29T14:30:15.723Z,1001.7
2019-05-29T14:33:15.420Z,1001.7
2019-05-29T14:36:15.112Z,1001.8
2019-05-29T14:39:15.823Z,1001.7
2019-05-29T14:42:15.561Z,1001.8
2019-05-29T14:45:15.466Z,1001.8
2019-05-29T14:48:15.195Z,1001.8
2019-05-29T14:51:14.952Z,1001.9
2019-05-29T14:54:15.576Z,1001.8
2019-05-29T14:57:24.818Z,1001.8
2019-05-29T15:00:21.073Z,1001.8
2019-05-29T15:03:15.434Z,1001.8
2019-05-29T15:06:15.083Z,1001.8
2019-05-29T15:09:15.820Z,1001.8
2019-05-29T15:12:15.507Z,1001.9
2019-05-29T15:15:16.468Z,1001.8
2019-05-29T15:18:18.823Z,1001.9
2019-05-29T15:21:15.426Z,1001.9
2019-05-29T15:24:15.838Z,1001.9
2019-05-29T15:27:16.226Z,1001.9
2019-05-29T15:30:22.018Z,1002.0
2019-05-29T15:33:15.066Z,1001.9
2019-05-29T15:36:16.860Z,1001.9
2019-05-29T15:39:16.764Z,1001.9
2019-05-29T15:42:15.125Z,1001.8
2019-05-29T15:45:15.989Z,1001.8
2019-05-29T15:48:17.239Z,1001.9
2019-05-29T15:51:15.327Z,1001.9
2019-05-29T15:54:15.321Z,1001.8
2019-05-29T15:57:15.309Z,1001.9
2019-05-29T16:00:15.599Z,1001.9
2019-05-29T16:03:15.674Z,1001.9
2019-05-29T16:06:15.977Z,1001.8
2019-05-29T16:09:16.324Z,1001.9
2019-05-29T16:12:15.131Z,1001.9
2019-05-29T16:15:17.246Z,1001.9
2019-05-29T16:18:22.776Z,1001.9
2019-05-29T16:21:16.526Z,1001.8
2019-05-29T16:24:16.724Z,1001.8
2019-05-29T16:27:16.045Z,1001.8
2019-05-29T16:30:15.922Z,1001.8
2019-05-29T16:33:15.129Z,1001.9
2019-05-29T16:36:16.541Z,1001.9
2019-05-29T16:39:15.806Z,1001.9
2019-05-29T16:42:15.909Z,1001.9
2019-05-29T16:45:16.329Z,1001.9
2019-05-29T16:48:16.405Z,1001.9
2019-05-29T16:51:15.186Z,1002.0
2019-05-29T16:54:17.173Z,1002.0
2019-05-29T16:57:15.292Z,1002.0
2019-05-29T17:00:15.664Z,1002.0
2019-05-29T17:03:15.953Z,1002.0
2019-05-29T17:06:15.817Z,1002.0
2019-05-29T17:09:16.353Z,1002.1
2019-05-29T17:12:16.252Z,1002.0
2019-05-29T17:15:15.275Z,1002.1
2019-05-29T17:18:16.434Z,1002.1
2019-05-29T17:21:16.425Z,1002.1
2019-05-29T17:24:16.666Z,1002.2
2019-05-29T17:27:16.526Z,1002.2
2019-05-29T17:30:16.568Z,1002.2
2019-05-29T17:33:15.289Z,1002.1
2019-05-29T17:36:16.844Z,1002.2
2019-05-29T17:39:17.018Z,1002.2
2019-05-29T17:42:16.066Z,1002.2
2019-05-29T17:45:19.605Z,1002.3
2019-05-29T17:48:15.472Z,1002.2
2019-05-29T17:51:15.403Z,1002.3
2019-05-29T17:54:20.114Z,1002.2
2019-05-29T17:57:16.666Z,1002.2
2019-05-29T18:00:15.937Z,1002.3
2019-05-29T18:03:16.074Z,1002.3
2019-05-29T18:06:16.307Z,1002.3
2019-05-29T18:09:17.063Z,1002.3
2019-05-29T18:12:17.099Z,1002.4
2019-05-29T18:15:15.237Z,1002.4
2019-05-29T18:18:15.103Z,1002.4
